createdAt,value
2019-01-30T00:00:49.239Z,2.61
2019-01-30T00:01:49.771Z,2.68
2019-01-30T00:02:49.528Z,2.62
2019-01-30T00:03:49.544Z,2.62
2019-01-30T00:04:49.300Z,2.67
2019-01-30T00:05:49.571Z,2.67
2019-01-30T00:06:49.842Z,2.57
2019-01-30T00:07:49.601Z,2.54
2019-01-30T00:08:49.358Z,2.54
2019-01-30T00:09:49.422Z,2.62
2019-01-30T00:10:49.474Z,2.56
2019-01-30T00:11:49.741Z,2.64
2019-01-30T00:12:49.420Z,2.6
2019-01-30T00:13:49.952Z,2.51
2019-01-30T00:14:49.703Z,2.61
2019-01-30T00:15:58.849Z,2.53
2019-01-30T00:16:49.490Z,2.57
2019-01-30T00:17:49.754Z,2.62
2019-01-30T00:18:49.502Z,2.56
2019-01-30T00:19:50.038Z,2.54
2019-01-30T00:20:49.539Z,2.6
2019-01-30T00:21:49.831Z,2.53
2019-01-30T00:22:49.573Z,2.5
2019-01-30T00:23:49.839Z,2.5
2019-01-30T00:24:49.597Z,2.54
2019-01-30T00:25:50.127Z,2.5
2019-01-30T00:26:50.143Z,2.51
2019-01-30T00:27:50.158Z,2.53
2019-01-30T00:28:50.170Z,2.54
2019-01-30T00:29:49.672Z,2.51
2019-01-30T00:30:49.684Z,2.47
2019-01-30T00:31:50.215Z,2.53
2019-01-30T00:32:49.750Z,2.5
2019-01-30T00:33:49.993Z,2.51
2019-01-30T00:34:50.150Z,2.53
2019-01-30T00:35:49.756Z,2.53
2019-01-30T00:36:50.029Z,2.44
2019-01-30T00:37:49.786Z,2.5
2019-01-30T00:38:50.316Z,2.47
2019-01-30T00:39:50.086Z,2.43
2019-01-30T00:40:50.094Z,2.54
2019-01-30T00:41:49.847Z,2.43
2019-01-30T00:42:50.117Z,2.53
2019-01-30T00:43:50.138Z,2.51
2019-01-30T00:44:50.146Z,2.47
2019-01-30T00:45:49.906Z,2.46
2019-01-30T00:46:50.180Z,2.53
2019-01-30T00:47:50.198Z,2.46
2019-01-30T00:48:49.953Z,2.46
2019-01-30T00:49:50.223Z,2.44
2019-01-30T00:50:49.981Z,2.56
2019-01-30T00:51:50.252Z,2.46
2019-01-30T00:52:50.010Z,2.56
2019-01-30T00:53:50.545Z,2.5
2019-01-30T00:54:50.297Z,2.56
2019-01-30T00:55:50.056Z,2.51
2019-01-30T00:56:50.583Z,2.53
2019-01-30T00:57:50.087Z,2.47
2019-01-30T00:58:50.355Z,2.51
2019-01-30T00:59:50.114Z,2.5
2019-01-30T01:00:50.392Z,2.51
2019-01-30T01:01:50.404Z,2.49
2019-01-30T01:02:50.415Z,2.51
2019-01-30T01:03:50.428Z,2.5
2019-01-30T01:04:50.451Z,2.5
2019-01-30T01:05:50.721Z,2.44
2019-01-30T01:06:50.218Z,2.46
2019-01-30T01:07:50.499Z,2.46
2019-01-30T01:08:50.244Z,2.46
2019-01-30T01:09:50.520Z,2.49
2019-01-30T01:10:50.542Z,2.49
2019-01-30T01:11:50.558Z,2.49
2019-01-30T01:12:50.566Z,2.49
2019-01-30T01:13:50.328Z,2.47
2019-01-30T01:14:50.592Z,2.49
2019-01-30T01:15:50.353Z,2.53
2019-01-30T01:16:50.885Z,2.47
2019-01-30T01:17:50.458Z,2.47
2019-01-30T01:18:50.397Z,2.51
2019-01-30T01:19:50.418Z,2.47
2019-01-30T01:20:50.940Z,2.5
2019-01-30T01:21:50.699Z,2.5
2019-01-30T01:22:50.712Z,2.49
2019-01-30T01:23:50.987Z,2.51
2019-01-30T01:24:50.740Z,2.51
2019-01-30T01:25:51.019Z,2.5
2019-01-30T01:26:51.030Z,2.49
2019-01-30T01:27:50.539Z,2.5
2019-01-30T01:28:50.800Z,2.44
2019-01-30T01:29:50.559Z,2.53
2019-01-30T01:30:50.832Z,2.51
2019-01-30T01:31:50.851Z,2.49
2019-01-30T01:32:51.789Z,2.49
2019-01-30T01:33:50.653Z,2.46
2019-01-30T01:34:50.890Z,2.49
2019-01-30T01:35:50.905Z,2.53
2019-01-30T01:36:50.920Z,2.56
2019-01-30T01:37:50.956Z,2.53
2019-01-30T01:38:50.950Z,2.53
2019-01-30T01:39:53.453Z,2.53
2019-01-30T01:40:50.719Z,2.47
2019-01-30T01:41:51.000Z,2.5
2019-01-30T01:42:51.003Z,2.53
2019-01-30T01:43:51.025Z,2.51
2019-01-30T01:44:51.036Z,2.53
2019-01-30T01:45:50.793Z,2.5
2019-01-30T01:46:51.067Z,2.5
2019-01-30T01:47:51.099Z,2.53
2019-01-30T01:48:50.841Z,2.53
2019-01-30T01:49:51.268Z,2.49
2019-01-30T01:50:51.129Z,2.51
2019-01-30T01:51:51.144Z,2.54
2019-01-30T01:52:50.911Z,2.6
2019-01-30T01:53:51.170Z,2.54
2019-01-30T01:54:51.185Z,2.47
2019-01-30T01:55:51.198Z,2.56
2019-01-30T01:56:51.216Z,2.6
2019-01-30T01:57:50.968Z,2.46
2019-01-30T01:58:51.247Z,2.5
2019-01-30T01:59:50.999Z,2.53
2019-01-30T02:00:51.015Z,2.53
2019-01-30T02:01:51.542Z,2.56
2019-01-30T02:02:51.311Z,2.53
2019-01-30T02:03:51.676Z,2.5
2019-01-30T02:04:51.588Z,2.51
2019-01-30T02:05:51.345Z,2.53
2019-01-30T02:06:51.359Z,2.53
2019-01-30T02:07:51.633Z,2.53
2019-01-30T02:08:51.649Z,2.47
2019-01-30T02:09:51.666Z,2.5
2019-01-30T02:10:51.783Z,2.5
2019-01-30T02:11:51.697Z,2.44
2019-01-30T02:12:51.455Z,2.51
2019-01-30T02:13:51.721Z,2.54
2019-01-30T02:14:51.219Z,2.54
2019-01-30T02:15:51.235Z,2.42
2019-01-30T02:16:51.508Z,2.53
2019-01-30T02:17:51.265Z,2.49
2019-01-30T02:18:51.542Z,2.53
2019-01-30T02:19:51.811Z,2.5
2019-01-30T02:20:51.567Z,2.46
2019-01-30T02:21:51.582Z,2.47
2019-01-30T02:22:51.340Z,2.5
2019-01-30T02:23:51.355Z,2.57
2019-01-30T02:24:51.712Z,2.42
2019-01-30T02:25:51.901Z,2.5
2019-01-30T02:26:51.652Z,2.49
2019-01-30T02:27:51.416Z,2.44
2019-01-30T02:28:51.432Z,2.5
2019-01-30T02:29:51.701Z,2.42
2019-01-30T02:30:52.468Z,2.5
2019-01-30T02:31:51.735Z,2.47
2019-01-30T02:32:51.486Z,2.49
2019-01-30T02:33:51.604Z,2.49
2019-01-30T02:34:52.030Z,2.44
2019-01-30T02:35:51.556Z,2.44
2019-01-30T02:36:51.826Z,2.51
2019-01-30T02:37:52.119Z,2.51
2019-01-30T02:38:51.945Z,2.44
2019-01-30T02:39:51.857Z,2.5
2019-01-30T02:40:51.938Z,2.51
2019-01-30T02:41:52.133Z,2.56
2019-01-30T02:42:52.153Z,2.53
2019-01-30T02:43:51.648Z,2.51
2019-01-30T02:44:52.303Z,2.53
2019-01-30T02:45:51.677Z,2.5
2019-01-30T02:46:51.950Z,2.53
2019-01-30T02:47:51.984Z,2.46
2019-01-30T02:48:51.734Z,2.47
2019-01-30T02:49:51.744Z,2.49
2019-01-30T02:50:52.015Z,2.5
2019-01-30T02:51:52.045Z,2.51
2019-01-30T02:52:52.303Z,2.5
2019-01-30T02:53:51.820Z,2.51
2019-01-30T02:54:52.076Z,2.42
2019-01-30T02:55:52.101Z,2.47
2019-01-30T02:56:52.104Z,2.46
2019-01-30T02:57:52.380Z,2.49
2019-01-30T02:58:51.871Z,2.49
2019-01-30T02:59:52.152Z,2.39
2019-01-30T03:01:03.082Z,2.46
2019-01-30T03:01:52.175Z,2.39
2019-01-30T03:02:52.003Z,2.5
2019-01-30T03:03:51.951Z,2.47
2019-01-30T03:04:52.215Z,2.47
2019-01-30T03:05:52.251Z,2.49
2019-01-30T03:06:51.995Z,2.44
2019-01-30T03:07:52.265Z,2.42
2019-01-30T03:08:52.025Z,2.38
2019-01-30T03:09:52.295Z,2.49
2019-01-30T03:10:52.566Z,2.43
2019-01-30T03:11:52.317Z,2.43
2019-01-30T03:12:52.339Z,2.43
2019-01-30T03:13:52.352Z,2.39
2019-01-30T03:14:52.360Z,2.39
2019-01-30T03:15:52.741Z,2.39
2019-01-30T03:16:52.398Z,2.39
2019-01-30T03:17:52.675Z,2.38
2019-01-30T03:18:52.434Z,2.42
2019-01-30T03:19:52.183Z,2.42
2019-01-30T03:20:52.451Z,2.35
2019-01-30T03:21:52.209Z,2.38
2019-01-30T03:22:52.565Z,2.42
2019-01-30T03:23:52.759Z,2.36
2019-01-30T03:24:52.774Z,2.35
2019-01-30T03:25:52.378Z,2.44
2019-01-30T03:26:52.799Z,2.39
2019-01-30T03:27:52.305Z,2.47
2019-01-30T03:28:52.307Z,2.33
2019-01-30T03:29:52.329Z,2.38
2019-01-30T03:30:52.606Z,2.36
2019-01-30T03:31:52.639Z,2.42
2019-01-30T03:32:52.674Z,2.39
2019-01-30T03:33:52.898Z,2.44
2019-01-30T03:34:52.652Z,2.42
2019-01-30T03:35:52.670Z,2.39
2019-01-30T03:36:52.424Z,2.39
2019-01-30T03:37:52.696Z,2.47
2019-01-30T03:38:52.714Z,2.42
2019-01-30T03:39:52.471Z,2.33
2019-01-30T03:40:52.485Z,2.26
2019-01-30T03:41:52.756Z,2.35
2019-01-30T03:42:52.516Z,2.36
2019-01-30T03:43:52.528Z,2.38
2019-01-30T03:44:52.542Z,2.36
2019-01-30T03:45:52.816Z,2.39
2019-01-30T03:46:52.582Z,2.38
2019-01-30T03:47:52.615Z,2.36
2019-01-30T03:48:52.862Z,2.43
2019-01-30T03:49:53.131Z,2.32
2019-01-30T03:50:52.895Z,2.31
2019-01-30T03:51:52.644Z,2.39
2019-01-30T03:52:52.918Z,2.33
2019-01-30T03:53:53.229Z,2.32
2019-01-30T03:54:52.947Z,2.33
2019-01-30T03:55:52.709Z,2.35
2019-01-30T03:56:52.976Z,2.33
2019-01-30T03:57:52.988Z,2.35
2019-01-30T03:58:53.017Z,2.33
2019-01-30T03:59:53.030Z,2.32
2019-01-30T04:00:53.047Z,2.26
2019-01-30T04:01:53.048Z,2.29
2019-01-30T04:02:53.334Z,2.32
2019-01-30T04:03:53.080Z,2.29
2019-01-30T04:04:53.166Z,2.28
2019-01-30T04:05:53.270Z,2.31
2019-01-30T04:06:53.126Z,2.29
2019-01-30T04:07:53.154Z,2.32
2019-01-30T04:08:53.150Z,2.31
2019-01-30T04:09:52.911Z,2.28
2019-01-30T04:10:52.926Z,2.33
2019-01-30T04:11:52.935Z,2.26
2019-01-30T04:12:52.960Z,2.33
2019-01-30T04:13:53.485Z,2.28
2019-01-30T04:14:53.296Z,2.33
2019-01-30T04:15:53.305Z,2.28
2019-01-30T04:16:53.005Z,2.31
2019-01-30T04:17:53.033Z,2.26
2019-01-30T04:18:53.552Z,2.31
2019-01-30T04:19:53.310Z,2.22
2019-01-30T04:20:53.321Z,2.28
2019-01-30T04:21:53.604Z,2.32
2019-01-30T04:22:53.360Z,2.28
2019-01-30T04:23:53.109Z,2.28
2019-01-30T04:24:53.403Z,2.2
2019-01-30T04:25:53.665Z,2.18
2019-01-30T04:26:53.677Z,2.28
2019-01-30T04:27:53.696Z,2.2
2019-01-30T04:28:53.191Z,2.14
2019-01-30T04:29:53.198Z,2.2
2019-01-30T04:30:53.474Z,2.2
2019-01-30T04:31:53.758Z,2.17
2019-01-30T04:32:53.248Z,2.17
2019-01-30T04:33:53.259Z,2.17
2019-01-30T04:34:53.526Z,2.18
2019-01-30T04:35:53.539Z,2.28
2019-01-30T04:36:53.563Z,2.24
2019-01-30T04:37:53.312Z,2.14
2019-01-30T04:38:53.325Z,2.26
2019-01-30T04:39:53.602Z,2.2
2019-01-30T04:40:53.967Z,2.2
2019-01-30T04:41:53.458Z,2.26
2019-01-30T04:42:53.916Z,2.28
2019-01-30T04:43:53.922Z,2.17
2019-01-30T04:44:53.674Z,2.15
2019-01-30T04:45:53.431Z,2.18
2019-01-30T04:46:53.447Z,2.13
2019-01-30T04:47:53.726Z,2.15
2019-01-30T04:48:53.988Z,2.15
2019-01-30T04:49:53.761Z,2.25
2019-01-30T04:50:53.504Z,2.25
2019-01-30T04:51:53.774Z,2.14
2019-01-30T04:52:53.788Z,2.2
2019-01-30T04:53:53.801Z,2.2
2019-01-30T04:54:54.095Z,2.15
2019-01-30T04:55:53.838Z,2.22
2019-01-30T04:56:53.588Z,2.11
2019-01-30T04:57:53.946Z,2.11
2019-01-30T04:58:54.136Z,2.08
2019-01-30T04:59:54.148Z,2.1
2019-01-30T05:00:53.645Z,2.13
2019-01-30T05:01:54.716Z,2.15
2019-01-30T05:02:53.682Z,2.14
2019-01-30T05:03:53.699Z,2.1
2019-01-30T05:04:53.966Z,2.14
2019-01-30T05:05:54.065Z,2.26
2019-01-30T05:06:53.738Z,2.15
2019-01-30T05:07:53.791Z,2.15
2019-01-30T05:08:55.983Z,2.14
2019-01-30T05:09:54.036Z,2.22
2019-01-30T05:10:53.793Z,2.24
2019-01-30T05:11:54.071Z,2.22
2019-01-30T05:12:54.136Z,2.11
2019-01-30T05:13:53.836Z,2.24
2019-01-30T05:14:54.376Z,2.11
2019-01-30T05:15:54.131Z,2.15
2019-01-30T05:16:54.138Z,2.2
2019-01-30T05:17:54.151Z,2.17
2019-01-30T05:18:54.167Z,2.14
2019-01-30T05:19:54.181Z,2.1
2019-01-30T05:20:54.455Z,2.14
2019-01-30T05:21:53.951Z,2.24
2019-01-30T05:22:54.232Z,2.14
2019-01-30T05:23:53.987Z,2.15
2019-01-30T05:24:54.259Z,2.1
2019-01-30T05:25:54.010Z,2.15
2019-01-30T05:26:54.026Z,2.14
2019-01-30T05:27:54.040Z,2.14
2019-01-30T05:28:54.314Z,2.11
2019-01-30T05:29:54.354Z,2.1
2019-01-30T05:30:54.095Z,2.24
2019-01-30T05:32:05.210Z,2.15
2019-01-30T05:32:54.382Z,2.26
2019-01-30T05:33:54.387Z,2.14
2019-01-30T05:34:54.760Z,2.2
2019-01-30T05:35:54.412Z,2.25
2019-01-30T05:36:54.430Z,2.11
2019-01-30T05:37:55.814Z,2.15
2019-01-30T05:38:54.486Z,2.28
2019-01-30T05:39:54.473Z,2.13
2019-01-30T05:40:54.237Z,2.18
2019-01-30T05:41:54.599Z,2.22
2019-01-30T05:42:54.516Z,2.22
2019-01-30T05:43:54.582Z,2.26
2019-01-30T05:44:54.296Z,2.26
2019-01-30T05:45:54.302Z,2.24
2019-01-30T05:46:54.322Z,2.17
2019-01-30T05:47:54.592Z,2.31
2019-01-30T05:48:54.343Z,2.15
2019-01-30T05:49:54.365Z,2.25
2019-01-30T05:50:54.371Z,2.18
2019-01-30T05:51:54.912Z,2.26
2019-01-30T05:52:54.678Z,2.26
2019-01-30T05:53:54.689Z,2.2
2019-01-30T05:54:54.697Z,2.2
2019-01-30T05:55:54.448Z,2.2
2019-01-30T05:56:54.987Z,2.25
2019-01-30T05:57:54.749Z,2.14
2019-01-30T05:58:55.010Z,2.17
2019-01-30T05:59:54.761Z,2.25
2019-01-30T06:00:55.042Z,2.18
2019-01-30T06:01:55.053Z,2.14
2019-01-30T06:02:54.552Z,2.22
2019-01-30T06:03:54.820Z,2.17
2019-01-30T06:04:54.581Z,2.17
2019-01-30T06:05:54.853Z,2.22
2019-01-30T06:06:55.217Z,2.24
2019-01-30T06:07:54.629Z,2.2
2019-01-30T06:08:54.918Z,2.2
2019-01-30T06:09:54.655Z,2.24
2019-01-30T06:10:54.669Z,2.22
2019-01-30T06:11:55.203Z,2.25
2019-01-30T06:12:54.951Z,2.14
2019-01-30T06:13:54.971Z,2.25
2019-01-30T06:14:55.002Z,2.13
2019-01-30T06:15:54.741Z,2.17
2019-01-30T06:16:55.016Z,2.11
2019-01-30T06:17:55.024Z,2.15
2019-01-30T06:18:55.041Z,2.2
2019-01-30T06:19:55.061Z,2.2
2019-01-30T06:20:54.809Z,2.14
2019-01-30T06:21:54.827Z,2.18
2019-01-30T06:22:55.359Z,2.22
2019-01-30T06:23:54.858Z,2.28
2019-01-30T06:24:54.875Z,2.17
2019-01-30T06:25:55.442Z,2.24
2019-01-30T06:26:55.177Z,2.14
2019-01-30T06:27:54.918Z,2.18
2019-01-30T06:28:55.201Z,2.25
2019-01-30T06:29:54.950Z,2.2
2019-01-30T06:30:55.354Z,2.11
2019-01-30T06:31:54.968Z,2.2
2019-01-30T06:32:55.243Z,2.15
2019-01-30T06:33:55.519Z,2.13
2019-01-30T06:34:56.690Z,2.13
2019-01-30T06:35:55.029Z,2.11
2019-01-30T06:36:55.297Z,2.15
2019-01-30T06:37:55.317Z,2.11
2019-01-30T06:38:55.173Z,2.1
2019-01-30T06:39:55.346Z,2.07
2019-01-30T06:40:55.616Z,2.18
2019-01-30T06:41:55.630Z,2.17
2019-01-30T06:42:55.386Z,2.11
2019-01-30T06:43:55.146Z,2.08
2019-01-30T06:44:55.160Z,2.11
2019-01-30T06:45:55.170Z,2.15
2019-01-30T06:46:55.188Z,2.08
2019-01-30T06:47:55.202Z,2.11
2019-01-30T06:48:56.245Z,2.14
2019-01-30T06:49:55.487Z,2.07
2019-01-30T06:50:55.502Z,2.17
2019-01-30T06:51:55.521Z,2.08
2019-01-30T06:52:55.533Z,2.08
2019-01-30T06:53:55.290Z,2.14
2019-01-30T06:54:55.563Z,2.1
2019-01-30T06:55:55.318Z,2.11
2019-01-30T06:56:55.598Z,2.1
2019-01-30T06:57:55.607Z,2.22
2019-01-30T06:58:55.620Z,2.15
2019-01-30T06:59:55.375Z,2.25
2019-01-30T07:00:57.450Z,2.14
2019-01-30T07:01:55.415Z,2.24
2019-01-30T07:02:55.420Z,2.26
2019-01-30T07:03:55.694Z,2.18
2019-01-30T07:04:55.712Z,2.18
2019-01-30T07:05:55.722Z,2.2
2019-01-30T07:06:55.738Z,2.28
2019-01-30T07:07:55.751Z,2.14
2019-01-30T07:08:56.086Z,2.17
2019-01-30T07:09:55.791Z,2.24
2019-01-30T07:10:55.543Z,2.18
2019-01-30T07:11:55.550Z,2.18
2019-01-30T07:12:56.103Z,2.28
2019-01-30T07:13:55.837Z,2.2
2019-01-30T07:14:55.856Z,2.22
2019-01-30T07:15:55.864Z,2.33
2019-01-30T07:16:55.623Z,2.25
2019-01-30T07:17:55.635Z,2.18
2019-01-30T07:18:56.173Z,2.26
2019-01-30T07:19:56.181Z,2.32
2019-01-30T07:20:56.196Z,2.32
2019-01-30T07:21:56.215Z,2.28
2019-01-30T07:22:55.970Z,2.26
2019-01-30T07:23:55.988Z,2.31
2019-01-30T07:24:56.010Z,2.31
2019-01-30T07:25:56.012Z,2.32
2019-01-30T07:26:56.287Z,2.32
2019-01-30T07:27:56.046Z,2.26
2019-01-30T07:28:56.322Z,2.28
2019-01-30T07:29:55.810Z,2.25
2019-01-30T07:30:55.836Z,2.32
2019-01-30T07:31:55.844Z,2.35
2019-01-30T07:32:56.110Z,2.26
2019-01-30T07:33:56.126Z,2.32
2019-01-30T07:34:56.142Z,2.33
2019-01-30T07:35:56.160Z,2.35
2019-01-30T07:36:56.177Z,2.32
2019-01-30T07:37:58.403Z,2.35
2019-01-30T07:38:56.218Z,2.42
2019-01-30T07:39:56.215Z,2.36
2019-01-30T07:40:55.974Z,2.43
2019-01-30T07:41:56.244Z,2.47
2019-01-30T07:42:56.572Z,2.38
2019-01-30T07:43:56.540Z,2.38
2019-01-30T07:44:56.294Z,2.39
2019-01-30T07:45:56.042Z,2.47
2019-01-30T07:46:56.314Z,2.49
2019-01-30T07:47:56.080Z,2.49
2019-01-30T07:48:56.347Z,2.39
2019-01-30T07:49:56.366Z,2.36
2019-01-30T07:50:56.632Z,2.39
2019-01-30T07:51:56.661Z,2.39
2019-01-30T07:52:58.755Z,2.39
2019-01-30T07:53:57.382Z,2.44
2019-01-30T07:54:56.434Z,2.46
2019-01-30T07:55:56.187Z,2.46
2019-01-30T07:56:56.464Z,2.42
2019-01-30T07:57:56.490Z,2.51
2019-01-30T07:58:56.542Z,2.5
2019-01-30T07:59:56.767Z,2.5
2019-01-30T08:00:56.266Z,2.47
2019-01-30T08:01:56.534Z,2.51
2019-01-30T08:02:58.196Z,2.53
2019-01-30T08:03:56.309Z,2.5
2019-01-30T08:04:56.581Z,2.56
2019-01-30T08:05:56.390Z,2.53
2019-01-30T08:06:56.609Z,2.54
2019-01-30T08:07:56.363Z,2.57
2019-01-30T08:08:56.640Z,2.6
2019-01-30T08:09:56.390Z,2.53
2019-01-30T08:10:56.920Z,2.54
2019-01-30T08:11:56.685Z,2.65
2019-01-30T08:12:56.697Z,2.68
2019-01-30T08:13:56.450Z,2.64
2019-01-30T08:14:56.741Z,2.69
2019-01-30T08:15:56.741Z,2.68
2019-01-30T08:16:57.014Z,2.69
2019-01-30T08:17:56.772Z,2.68
2019-01-30T08:18:56.796Z,2.65
2019-01-30T08:19:56.536Z,2.69
2019-01-30T08:20:56.806Z,2.71
2019-01-30T08:21:56.823Z,2.75
2019-01-30T08:22:57.283Z,2.71
2019-01-30T08:23:57.084Z,2.79
2019-01-30T08:24:57.657Z,2.83
2019-01-30T08:25:57.254Z,2.82
2019-01-30T08:26:57.704Z,2.8
2019-01-30T08:27:56.908Z,2.75
2019-01-30T08:28:57.307Z,2.82
2019-01-30T08:29:57.987Z,2.79
2019-01-30T08:30:57.945Z,2.69
2019-01-30T08:31:57.683Z,2.82
2019-01-30T08:33:07.535Z,2.79
2019-01-30T08:33:57.000Z,2.82
2019-01-30T08:34:57.013Z,2.8
2019-01-30T08:35:57.027Z,2.74
2019-01-30T08:36:57.041Z,2.75
2019-01-30T08:37:56.805Z,2.82
2019-01-30T08:38:57.077Z,2.8
2019-01-30T08:39:57.092Z,2.8
2019-01-30T08:40:56.852Z,2.65
2019-01-30T08:41:57.118Z,2.8
2019-01-30T08:42:57.130Z,2.74
2019-01-30T08:43:57.998Z,2.77
2019-01-30T08:44:56.897Z,2.77
2019-01-30T08:45:57.179Z,2.75
2019-01-30T08:46:57.191Z,2.74
2019-01-30T08:47:57.312Z,2.77
2019-01-30T08:48:56.960Z,2.82
2019-01-30T08:49:56.973Z,2.75
2019-01-30T08:50:57.003Z,2.82
2019-01-30T08:51:57.266Z,2.77
2019-01-30T08:52:57.276Z,2.79
2019-01-30T08:53:57.036Z,2.82
2019-01-30T08:54:57.307Z,2.74
2019-01-30T08:55:57.063Z,2.83
2019-01-30T08:56:58.193Z,2.79
2019-01-30T08:57:57.390Z,2.82
2019-01-30T08:58:57.105Z,2.72
2019-01-30T08:59:57.151Z,2.79
2019-01-30T09:00:57.659Z,2.83
2019-01-30T09:01:57.151Z,2.87
2019-01-30T09:02:57.427Z,2.8
2019-01-30T09:03:57.445Z,2.8
2019-01-30T09:04:57.454Z,2.89
2019-01-30T09:05:57.472Z,2.83
2019-01-30T09:06:57.321Z,2.85
2019-01-30T09:07:57.243Z,2.85
2019-01-30T09:08:57.252Z,2.83
2019-01-30T09:09:57.783Z,2.87
2019-01-30T09:10:57.288Z,2.86
2019-01-30T09:11:59.895Z,3.03
2019-01-30T09:12:57.399Z,2.95
2019-01-30T09:13:57.844Z,2.9
2019-01-30T09:14:57.597Z,2.92
2019-01-30T09:15:57.878Z,2.93
2019-01-30T09:16:57.377Z,2.97
2019-01-30T09:17:57.389Z,3.01
2019-01-30T09:19:00.223Z,3.07
2019-01-30T09:19:57.435Z,3.05
2019-01-30T09:20:57.425Z,3.07
2019-01-30T09:21:57.705Z,3.04
2019-01-30T09:22:57.714Z,3.03
2019-01-30T09:23:57.730Z,3.07
2019-01-30T09:24:57.747Z,3.07
2019-01-30T09:25:57.498Z,3.05
2019-01-30T09:26:57.775Z,3.04
2019-01-30T09:27:57.790Z,3.07
2019-01-30T09:28:57.810Z,3.07
2019-01-30T09:29:58.082Z,3.08
2019-01-30T09:30:57.830Z,3.1
2019-01-30T09:31:57.585Z,3.08
2019-01-30T09:32:59.829Z,3.1
2019-01-30T09:33:57.919Z,3.13
2019-01-30T09:34:57.726Z,3.21
2019-01-30T09:35:57.903Z,3.1
2019-01-30T09:36:57.917Z,3.14
2019-01-30T09:37:57.941Z,3.16
2019-01-30T09:38:58.003Z,3.19
2019-01-30T09:39:58.242Z,3.28
2019-01-30T09:40:58.243Z,3.29
2019-01-30T09:41:58.028Z,3.26
2019-01-30T09:42:57.783Z,3.31
2019-01-30T09:43:58.029Z,3.26
2019-01-30T09:44:57.816Z,3.34
2019-01-30T09:45:58.062Z,3.37
2019-01-30T09:46:58.161Z,3.29
2019-01-30T09:47:58.339Z,3.29
2019-01-30T09:48:58.360Z,3.37
2019-01-30T09:49:57.863Z,3.36
2019-01-30T09:50:58.129Z,3.37
2019-01-30T09:51:57.910Z,3.34
2019-01-30T09:52:58.172Z,3.37
2019-01-30T09:53:59.894Z,3.37
2019-01-30T09:54:57.940Z,3.37
2019-01-30T09:55:58.198Z,3.34
2019-01-30T09:56:57.973Z,3.34
2019-01-30T09:57:58.227Z,3.4
2019-01-30T09:58:58.244Z,3.37
2019-01-30T09:59:58.000Z,3.34
2019-01-30T10:00:58.269Z,3.48
2019-01-30T10:01:58.287Z,3.36
2019-01-30T10:02:58.303Z,3.47
2019-01-30T10:03:58.069Z,3.41
2019-01-30T10:04:58.335Z,3.4
2019-01-30T10:05:58.343Z,3.36
2019-01-30T10:06:58.103Z,3.41
2019-01-30T10:07:59.979Z,3.41
2019-01-30T10:08:58.394Z,3.47
2019-01-30T10:09:58.145Z,3.41
2019-01-30T10:10:58.417Z,3.47
2019-01-30T10:11:58.433Z,3.5
2019-01-30T10:12:58.449Z,3.44
2019-01-30T10:13:58.730Z,3.47
2019-01-30T10:14:58.482Z,3.45
2019-01-30T10:15:58.493Z,3.48
2019-01-30T10:16:58.507Z,3.53
2019-01-30T10:17:58.266Z,3.51
2019-01-30T10:18:58.287Z,3.55
2019-01-30T10:19:58.309Z,3.55
2019-01-30T10:20:58.600Z,3.5
2019-01-30T10:21:58.327Z,3.5
2019-01-30T10:22:58.607Z,3.56
2019-01-30T10:23:58.352Z,3.62
2019-01-30T10:24:58.630Z,3.56
2019-01-30T10:25:58.388Z,3.56
2019-01-30T10:26:58.965Z,3.58
2019-01-30T10:27:58.674Z,3.58
2019-01-30T10:28:58.686Z,3.69
2019-01-30T10:30:01.223Z,3.65
2019-01-30T10:30:58.972Z,3.6
2019-01-30T10:31:58.469Z,3.7
2019-01-30T10:32:58.890Z,3.74
2019-01-30T10:33:58.758Z,3.73
2019-01-30T10:34:58.778Z,3.69
2019-01-30T10:35:58.807Z,3.73
2019-01-30T10:36:59.126Z,3.76
2019-01-30T10:37:58.820Z,3.66
2019-01-30T10:38:59.095Z,3.73
2019-01-30T10:39:58.594Z,3.69
2019-01-30T10:40:59.125Z,3.66
2019-01-30T10:41:58.890Z,3.73
2019-01-30T10:43:02.174Z,3.66
2019-01-30T10:43:58.657Z,3.74
2019-01-30T10:44:58.666Z,3.69
2019-01-30T10:45:58.680Z,3.7
2019-01-30T10:46:58.975Z,3.73
2019-01-30T10:47:58.972Z,3.74
2019-01-30T10:48:58.727Z,3.68
2019-01-30T10:49:58.739Z,3.68
2019-01-30T10:50:59.021Z,3.7
2019-01-30T10:51:59.289Z,3.69
2019-01-30T10:52:58.790Z,3.73
2019-01-30T10:53:59.317Z,3.68
2019-01-30T10:54:59.073Z,3.69
2019-01-30T10:55:59.088Z,3.69
2019-01-30T10:56:59.104Z,3.66
2019-01-30T10:57:59.119Z,3.73
2019-01-30T10:58:58.889Z,3.68
2019-01-30T10:59:59.151Z,3.69
2019-01-30T11:00:58.929Z,3.69
2019-01-30T11:01:59.177Z,3.65
2019-01-30T11:02:59.191Z,3.68
2019-01-30T11:04:01.919Z,3.7
2019-01-30T11:04:59.221Z,3.7
2019-01-30T11:05:59.236Z,3.66
2019-01-30T11:06:59.509Z,3.68
2019-01-30T11:07:59.266Z,3.68
2019-01-30T11:08:59.280Z,3.68
2019-01-30T11:09:59.035Z,3.66
2019-01-30T11:11:09.707Z,3.63
2019-01-30T11:11:59.065Z,3.68
2019-01-30T11:12:59.089Z,3.66
2019-01-30T11:13:59.358Z,3.66
2019-01-30T11:14:59.115Z,3.68
2019-01-30T11:16:01.142Z,3.66
2019-01-30T11:16:59.400Z,3.68
2019-01-30T11:17:59.161Z,3.68
2019-01-30T11:18:59.429Z,3.68
2019-01-30T11:19:59.447Z,3.68
2019-01-30T11:20:59.759Z,3.7
2019-01-30T11:21:59.215Z,3.68
2019-01-30T11:22:59.492Z,3.73
2019-01-30T11:23:59.343Z,3.73
2019-01-30T11:25:00.460Z,3.77
2019-01-30T11:26:01.647Z,3.8
2019-01-30T11:26:59.290Z,3.83
2019-01-30T11:27:59.306Z,3.83
2019-01-30T11:28:59.326Z,3.8
2019-01-30T11:29:59.595Z,3.8
2019-01-30T11:30:59.350Z,3.84
2019-01-30T11:31:59.623Z,3.88
2019-01-30T11:33:00.190Z,3.83
2019-01-30T11:34:09.735Z,3.83
2019-01-30T11:34:59.408Z,3.88
2019-01-30T11:35:59.688Z,3.83
2019-01-30T11:37:02.323Z,3.91
2019-01-30T11:37:59.453Z,3.94
2019-01-30T11:38:59.986Z,3.95
2019-01-30T11:39:59.487Z,3.99
2019-01-30T11:40:59.502Z,3.92
2019-01-30T11:41:59.512Z,3.88
2019-01-30T11:42:59.794Z,3.95
2019-01-30T11:43:59.801Z,3.91
2019-01-30T11:44:59.558Z,3.87
2019-01-30T11:45:59.832Z,3.91
2019-01-30T11:46:59.590Z,3.92
2019-01-30T11:47:59.606Z,3.87
2019-01-30T11:49:01.267Z,3.88
2019-01-30T11:49:59.637Z,3.91
2019-01-30T11:51:00.164Z,3.88
2019-01-30T11:51:59.664Z,3.88
2019-01-30T11:52:59.726Z,3.92
2019-01-30T11:53:59.952Z,3.87
2019-01-30T11:54:59.708Z,3.91
2019-01-30T11:55:59.982Z,3.91
2019-01-30T11:56:59.737Z,3.81
2019-01-30T11:58:00.014Z,3.81
2019-01-30T11:59:00.026Z,3.87
2019-01-30T11:59:59.778Z,3.95
2019-01-30T12:01:00.057Z,3.88
2019-01-30T12:01:59.810Z,3.83
2019-01-30T12:03:00.093Z,3.86
2019-01-30T12:03:59.937Z,3.96
2019-01-30T12:04:59.858Z,3.87
2019-01-30T12:06:00.398Z,3.84
2019-01-30T12:06:59.886Z,3.88
2019-01-30T12:07:59.901Z,3.91
2019-01-30T12:09:00.173Z,3.92
2019-01-30T12:10:00.695Z,3.98
2019-01-30T12:11:00.205Z,3.94
2019-01-30T12:11:59.962Z,4.01
2019-01-30T12:13:00.493Z,3.98
2019-01-30T12:13:59.991Z,3.96
2019-01-30T12:15:00.007Z,4.01
2019-01-30T12:16:00.027Z,3.96
2019-01-30T12:17:00.305Z,4.02
2019-01-30T12:18:00.312Z,4.04
2019-01-30T12:19:00.586Z,3.95
2019-01-30T12:20:00.135Z,4.02
2019-01-30T12:21:00.100Z,4.08
2019-01-30T12:22:00.371Z,4.05
2019-01-30T12:23:00.386Z,4.13
2019-01-30T12:24:00.145Z,4.1
2019-01-30T12:25:00.684Z,4.17
2019-01-30T12:26:00.431Z,4.12
2019-01-30T12:27:00.191Z,4.19
2019-01-30T12:28:00.254Z,4.13
2019-01-30T12:29:00.475Z,4.16
2019-01-30T12:30:00.494Z,4.19
2019-01-30T12:31:00.248Z,4.2
2019-01-30T12:32:00.522Z,4.22
2019-01-30T12:33:00.327Z,4.16
2019-01-30T12:34:01.689Z,4.22
2019-01-30T12:35:00.566Z,4.3
2019-01-30T12:36:00.586Z,4.26
2019-01-30T12:37:00.595Z,4.17
2019-01-30T12:38:00.870Z,4.16
2019-01-30T12:39:00.447Z,4.3
2019-01-30T12:40:00.641Z,4.22
2019-01-30T12:41:00.657Z,4.22
2019-01-30T12:42:00.674Z,4.16
2019-01-30T12:43:00.428Z,4.17
2019-01-30T12:44:00.703Z,4.19
2019-01-30T12:45:00.720Z,4.12
2019-01-30T12:46:00.732Z,4.14
2019-01-30T12:47:00.493Z,4.12
2019-01-30T12:48:00.554Z,4.2
2019-01-30T12:49:01.038Z,4.13
2019-01-30T12:50:00.640Z,4.04
2019-01-30T12:51:00.550Z,4.06
2019-01-30T12:52:00.823Z,4.05
2019-01-30T12:53:00.639Z,4.02
2019-01-30T12:54:00.596Z,4.02
2019-01-30T12:55:00.872Z,4.02
2019-01-30T12:56:00.627Z,4.05
2019-01-30T12:57:00.639Z,4.04
2019-01-30T12:58:01.022Z,4.01
2019-01-30T12:59:00.934Z,3.99
2019-01-30T13:00:00.961Z,3.98
2019-01-30T13:01:00.959Z,3.95
2019-01-30T13:02:00.969Z,4.06
2019-01-30T13:03:00.751Z,3.95
2019-01-30T13:04:01.003Z,3.96
2019-01-30T13:05:01.018Z,3.88
2019-01-30T13:06:01.301Z,3.88
2019-01-30T13:07:01.304Z,3.86
2019-01-30T13:08:01.321Z,3.95
2019-01-30T13:09:01.335Z,3.95
2019-01-30T13:10:00.832Z,3.91
2019-01-30T13:11:01.368Z,3.84
2019-01-30T13:12:00.865Z,3.88
2019-01-30T13:13:00.893Z,3.91
2019-01-30T13:14:01.154Z,3.94
2019-01-30T13:15:01.182Z,3.94
2019-01-30T13:16:01.283Z,3.98
2019-01-30T13:17:01.306Z,3.86
2019-01-30T13:18:00.960Z,3.87
2019-01-30T13:19:01.228Z,3.88
2019-01-30T13:20:01.240Z,3.99
2019-01-30T13:21:01.001Z,3.91
2019-01-30T13:22:01.012Z,4.04